Nettleton, Mississippi
Current Conditions -  °F | °C
As of 12:53 AM on Friday 19 Dec 2014 (Local Time) from KTUP Reporting Station
Overcast Overcast  
Wind Chill: 42°   Ceiling: 3200
Heat Index: 45°   Visibility: 10mi
Dew Point: 37°   Wind: 6mph
Humidity: 74%   Direction: 40°NE
Pressure: 30.21"   Gusts: NA
Location:  34.09°N, 88.62°W
Report Text: KTUP 190653Z AUTO 04005KT 10SM OVC032 07/03 A3021 RMK AO2 SLP230 T00720028
Loading
Personal Weather Stations






























Interactive Weather Map New forecast layout! Learn more

10-Day Weather Forecast

Advertisements
Track Severe Weather on mobile